Accueil
METAR-TAF:

METAR-TAF

Aéroports :

Brive-la-Gaillarde, France

Aéroport de Brive-Vallée de la Dordogne

latitude: 45-02-28N, longitude: 001-28-59E, altitude: 311 m

Observation

Le bulletin a été fait il y a 19 minutes, à 01:30 UTC
Vent 4 kt de est/sud-est
Température 11°C
Humidité 94%
Pression 1024 hPa
Visibilité 10 km ou plus
pas de nuages en-dessous de 1500 mètres et pas de cumulonimbus.

METAR: LFSL 170130Z AUTO 11004KT CAVOK 11/10 Q1024

Heure: 03:49 (01:49 UTC)

Prévision

Le bulletin a été fait il y a 11 heures et 49 minutes, à 14:00 UTC
Prévision valable du 16 à 15 UTC au 16 à 24 UTC
Vent 10 kt de sud-est
Visibilité 10 km ou plus
pas de nuages en-dessous de 1500 mètres et pas de cumulonimbus.

TAF: LFSL 161400Z 1615/1624 14010KT CAVOK

Observations et prévisions météorologiques de plus de 4000 aéroports (messages METAR et TAF).

Les stations disponibles sont représentées par des disques jaunes et rouges sur la carte.

Passer la souris dessus pour voir le nom de la station.

Cliquer dessus pour voir les observations et prévisions météorologiques.

Pour changer de carte: cliquez sur les boutons verts avec une croix noire pour zoomer, sur le bouton vert avec un tiret pour effectuer un zoom arrière, ou sur les flèches vertes pour les cartes adjacentes.


METAR-TAF: